NY Terminal Aviation Weather Discussion (AFD) - Prepared: 353 PM EDT WED APR 16 2014
HIGH PRESSURE BUILDS OVER THE AREA INTO TONIGHT...THEN SHIFTS 
NE OVER THE CANADIAN MARITIMES ON THURSDAY. 

VFR.

NW WINDS 10 TO 15 KT WITH GUSTS AROUND 20 KT. GUSTS WILL END AROUND 
22Z WITH SUSTAINED WINDS SLOWLY DIMINISHING THIS EVENING AS 
DIRECTIONS VEER TO THE N. 

WINDS WILL VEER TO THE NE AT 5-12 KT OVERNIGHT. WINDS CONTINUE TO 
VEER TO THE E THURSDAY MORNING WITH SPEEDS INCREASING 10 TO 15 KT.

5 Day General Aviation Outlook:

.OUTLOOK FOR 18Z THURSDAY THROUGH SUNDAY...
.THURSDAY...VFR. E WIND GUST AROUND 20KT POSSIBLE.
.THURSDAY NIGHT-FRIDAY NIGHT...PSBL MVFR CIGS.
.SATURDAY...PSBL MVFR CONDITIONS WITH LOW CHANCE OF -SHRA. 
.SATURDAY NIGHT-SUNDAY...VFR
.MONDAY...VFR


NY Metro Terminal Aviation Weather Summary: (Explanation of Color Coding)
NOTE: All Wind Directions are TRUE (add 13 degrees for magnetic directions). Tail and Crosswind Calculations do account for the magnetic deviation of runways.

Click on the Airport Below for Specific Information at that Terminal

TAF Overview JFK TAF LGA TAF EWR TAF TEB TAF HPN TAF ISP TAF

Jump to AirSpace Impacts Section Condensed "lite" version of SPA page
**************************************************************************************
KJFK Terminal Weather: (Wind Directions Are True, Except Where Noted, ADD 13 degrees for Magnetic)

5MIN KJFK 162150Z 34012KT 10SM FEW250 09/M10 A3043 -450
      25 -1200 360/12 RMK AO2 SLP305 T00891100
5MIN KJFK 162145Z 01012G19KT 10SM CLR 09/M11 A3043 -450
      24 -1200 020/12G19 RMK AO2 SLP305 T00891106
********************************************
****        MAGNETIC DIRECTIONS         ****
********************************************
KJFK 04/16/2014 22:01:17 GMT 360 13 KT
KJFK 04/16/2014 21:59:17 GMT 360 14 KT
KJFK 04/16/2014 21:57:17 GMT 350 15 G27KT
KJFK 04/16/2014 21:55:17 GMT 340 14 KT
KJFK 04/16/2014 21:53:54 GMT 350 15 KT
KJFK 04/16/2014 21:51:54 GMT 350 16 KT
KJFK 04/16/2014 21:49:54 GMT 360 13 KT
KJFK 04/16/2014 21:47:54 GMT 010 14 KT
KJFK 04/16/2014 21:45:54 GMT 020 14 KT
KJFK 04/16/2014 21:43:54 GMT 010 16 KT
SAUS70 KJFK 162200 RRM
METAR KJFK 162151Z 34013KT 10SM FEW250 09/M11 A3043 RMK AO2 SLP305
     T00891106
FTNA35 KJFK 162133 RRA
KJFK 162127Z 1621/1724 36014KT P6SM SKC
     FM170200 03012KT P6SM SCT250
     FM170900 04010KT P6SM FEW030 SCT250
     FM171500 07014KT P6SM FEW040 SCT250
     FM171900 10018KT P6SM FEW040 SCT250
KJFK FCSTER COMMENTS: END TIME OF GUSTS MAY BE OFF +/- AN HOUR.

jfk

JFK Hourly Forecast Temperature (C)

JFK Hourly TMPS
**************************************************************************************
KLGA Terminal Weather: (Wind Directions Are True, Except Where Noted, ADD 13 degrees for Magnetic)

5MIN KLGA 162150Z 33008KT 10SM CLR 08/M08 A3043 -440 31
      -1300 340/08 RMK AO2 SLP303 T00831078
5MIN KLGA 162145Z 32011KT 10SM CLR 08/M08 A3042 -430 30
      -1300 330/11 RMK AO2 SLP302 T00831083
********************************************
****        MAGNETIC DIRECTIONS         ****
********************************************
KLGA 04/16/2014 22:02:00 GMT 360 09 G15KT
KLGA 04/16/2014 22:00:00 GMT 020 07 G15KT
KLGA 04/16/2014 21:58:00 GMT 030 11 G15KT
KLGA 04/16/2014 21:56:00 GMT 030 13 KT
KLGA 04/16/2014 21:53:59 GMT 010 07 KT
KLGA 04/16/2014 21:51:59 GMT 350 09 KT
KLGA 04/16/2014 21:49:58 GMT 350 11 KT
KLGA 04/16/2014 21:47:59 GMT 350 12 KT
KLGA 04/16/2014 21:45:58 GMT 350 13 KT
KLGA 04/16/2014 21:43:58 GMT 350 10 KT
SAUS70 KLGA 162200
METAR KLGA 162151Z 35007KT 310V010 10SM CLR 08/M08 A3043 RMK AO2 SLP303
     T00831083
FTUS31 KLGA 161933 AAA
KLGA 161930Z 1620/1718 34015G20KT P6SM FEW045
     FM162200 36013KT P6SM FEW045
     FM170200 03011KT P6SM SCT250
     FM170900 05010KT P6SM FEW030 SCT250
     FM171500 06016KT P6SM FEW040 SCT250
KLGA FCSTER COMMENTS: END TIME OF GUSTS MAY BE OFF +/- AN HOUR.

lga


**************************************************************************************

KEWR Terminal Weather: (Wind Directions Are True, Except Where Noted, ADD 13 degrees for Magnetic)

5MIN KEWR 162150Z 35011G17KT 10SM FEW250 09/M10 A3044 
     -450 25 -1200 360/11G17 RMK AO2 SLP305 T00891100
5MIN KEWR 162145Z 01009G14KT 340V040 10SM FEW250 09/M09
      A3044 -450 26 -1200 020/09G14 350V050 RMK AO2 SLP305 T00891094
********************************************
****        MAGNETIC DIRECTIONS         ****
********************************************
KEWR 04/16/2014 22:01:51 GMT 010 09 KT
KEWR 04/16/2014 21:59:51 GMT 340 11 KT
KEWR 04/16/2014 21:57:51 GMT 350 10 KT
KEWR 04/16/2014 21:55:51 GMT 350 09 KT
KEWR 04/16/2014 21:53:51 GMT 360 09 KT
KEWR 04/16/2014 21:51:51 GMT 360 12 KT
KEWR 04/16/2014 21:49:51 GMT 010 12 KT
KEWR 04/16/2014 21:47:51 GMT 020 11 KT
KEWR 04/16/2014 21:45:51 GMT 360 09 KT
KEWR 04/16/2014 21:43:51 GMT 340 10 KT
SAUS70 KEWR 162200
METAR KEWR 162151Z 35009G17KT 320V020 10SM FEW250 08/M10 A3044 RMK AO2
     SLP305 T00831100
FTUS31 KEWR 162136 AAA
KEWR 162134Z 1622/1724 36014KT P6SM SKC
     FM170200 02010KT P6SM SCT250
     FM170900 05008KT P6SM FEW030 SCT250
     FM171500 09011KT P6SM FEW040 SCT250
KEWR FCSTER COMMENTS: END TIME OF GUSTS MAY BE OFF +/- AN HOUR.

ewr
Afternoon EWR Haze Potential Forecast: KEWR Haze Forecast Not Available at This Time
IS NOT AVAILABLE AT THIS TIME


******************************************************************************

KTEB Terminal Weather:
SAUS80 KTEB 162200
METAR KTEB 162151Z 32009KT 10SM CLR 09/M08 A3043 RMK AO2 SLP303
     T00941078
FTUS31 KTEB 161933 AAA
KTEB 161930Z 1620/1718 34013G20KT P6SM SKC
     FM162200 36010KT P6SM SKC
     FM170200 03005KT P6SM SCT250
     FM170900 05005KT P6SM FEW030 SCT250
     FM171500 09011KT P6SM FEW040 SCT250
KTEB FCSTER COMMENTS: END TIME OF GUSTS MAY BE OFF +/- AN HOUR.

teb

 


**************************************************************************************

KHPN Terminal Weather:
SAUS70 KHPN 162100 RRB
METAR KHPN 162056Z 36008KT 10SM CLR 07/M07 A3040 RMK AO2 SLP300
     T00671072 53004
FTUS41 KHPN 162136 AAA
KHPN 162133Z 1622/1718 36010KT P6SM SKC
     FM170200 01008KT P6SM SCT250
     FM170900 04006KT P6SM FEW030 SCT250
     FM171500 10011KT P6SM FEW040 SCT250 AMD NOT SKED
KHPN FCSTER COMMENTS: END TIME OF GUSTS MAY BE OFF +/- AN HOUR.

HPN


******************************************************************************

KISP Terminal Weather:
SAUS70 KISP 162100 RRE
METAR KISP 162056Z COR 36015G22KT 10SM FEW250 08/M10 A3039 RMK AO2
     SLP291 T00781100 51012
FTUS51 KISP 161933 AAA
KISP 161930Z 1620/1718 34016G24KT P6SM SKC
     FM162300 36014KT P6SM SKC
     FM170200 04008KT P6SM SCT250
     FM170900 07007KT P6SM FEW030 SCT250
     FM171500 09014KT P6SM FEW040 SCT250
KISP FCSTER COMMENTS: END TIME OF GUSTS MAY BE OFF +/- AN HOUR.

ISP

 


ZNY SWAP Season Information

(ZNY SWAP STATEMENT) (Click for PDF File) (ZNY BRIEFING) (Click for PDF File)

*******************************************************
***        NY AIR ROUTE TRAFFIC CONTROL CENTER      ***
***                DAILY SWAP STATEMENT             ***
*******************************************************
NY AIR ROUTE TRAFFIC CONTROL CENTER
DAILY SWAP STATEMENT
APRIL 16, 2014
SWAP IS NOT EXPECTED.
ADDT'L INFO:
AZEZU-PAEPR-HANRI(L453-M201): NO IMPACTS. 
DITCH: NO IMPACTS.
EAST GATES: NO IMPACTS. 
TOMORROW MORNINGS SWAP OUTLOOK: SWAP IS NOT EXPECTED.
$$
GS


N90 AirSpace Impacts

N90 ZNY Gate TSTM Forecast    SWAP Day One Forecast

SWAP Day One Forecast    SWAP Day Two Outlook

National Collaborative Convective Forecast Product (CCFP) Forecasts (Mar-Oct)


Vertical Wind Profile
Untitled Document